createdAt,value
2019-04-14T00:00:25.066Z,102654.20
2019-04-14T00:03:00.076Z,102647.95
2019-04-14T00:05:32.912Z,102655.88
2019-04-14T00:08:02.441Z,102649.94
2019-04-14T00:10:33.259Z,102645.57
2019-04-14T00:13:03.073Z,102650.27
2019-04-14T00:15:40.624Z,102647.44
2019-04-14T00:18:05.444Z,102652.28
2019-04-14T00:20:35.946Z,102655.07
2019-04-14T00:23:06.568Z,102651.84
2019-04-14T00:25:36.999Z,102643.84
2019-04-14T00:28:07.362Z,102645.14
2019-04-14T00:30:38.241Z,102646.48
2019-04-14T00:33:10.675Z,102644.59
2019-04-14T00:35:54.233Z,102642.01
2019-04-14T00:38:26.014Z,102650.52
2019-04-14T00:41:07.200Z,102652.38
2019-04-14T00:43:39.597Z,102635.77
2019-04-14T00:46:23.998Z,102638.19
2019-04-14T00:48:54.058Z,102637.17
2019-04-14T00:51:24.504Z,102642.06
2019-04-14T00:53:55.666Z,102640.30
2019-04-14T00:56:25.867Z,102633.24
2019-04-14T00:58:56.175Z,102644.47
2019-04-14T01:01:26.512Z,102634.53
2019-04-14T01:03:56.970Z,102631.37
2019-04-14T01:06:27.324Z,102636.55
2019-04-14T01:08:57.591Z,102636.92
2019-04-14T01:11:27.426Z,102652.77
2019-04-14T01:13:57.336Z,102647.34
2019-04-14T01:16:28.144Z,102642.23
2019-04-14T01:18:58.175Z,102644.13
2019-04-14T01:21:28.528Z,102657.46
2019-04-14T01:23:58.909Z,102652.23
2019-04-14T01:26:28.927Z,102651.55
2019-04-14T01:28:59.356Z,102647.05
2019-04-14T01:31:29.604Z,102650.89
2019-04-14T01:33:59.781Z,102656.44
2019-04-14T01:36:29.908Z,102653.58
2019-04-14T01:39:00.342Z,102655.36
2019-04-14T01:41:30.401Z,102648.59
2019-04-14T01:44:00.398Z,102654.02
2019-04-14T01:46:32.692Z,102647.24
2019-04-14T01:49:02.868Z,102650.37
2019-04-14T01:51:50.752Z,102652.91
2019-04-14T01:54:38.751Z,102652.09
2019-04-14T01:57:22.133Z,102655.55
2019-04-14T01:59:52.512Z,102658.77
2019-04-14T02:02:27.184Z,102668.94
2019-04-14T02:04:57.574Z,102658.80
2019-04-14T02:07:27.679Z,102663.80
2019-04-14T02:09:57.654Z,102659.10
2019-04-14T02:12:27.881Z,102658.23
2019-04-14T02:14:58.282Z,102663.22
2019-04-14T02:17:28.527Z,102675.27
2019-04-14T02:19:58.961Z,102670.56
2019-04-14T02:22:29.164Z,102676.52
2019-04-14T02:24:59.283Z,102670.14
2019-04-14T02:27:29.742Z,102669.93
2019-04-14T02:30:00.350Z,102672.67
2019-04-14T02:32:57.469Z,102675.13
2019-04-14T02:35:28.520Z,102669.65
2019-04-14T02:38:03.600Z,102672.72
2019-04-14T02:40:40.980Z,102673.26
2019-04-14T02:43:09.285Z,102675.13
2019-04-14T02:48:20.424Z,102683.95
2019-04-14T02:50:43.787Z,102685.14
2019-04-14T02:53:15.190Z,102686.50
2019-04-14T02:55:46.781Z,102681.06
2019-04-14T02:58:20.370Z,102681.50
2019-04-14T03:00:47.939Z,102678.81
2019-04-14T03:03:27.838Z,102685.25
2019-04-14T03:05:53.255Z,102687.51
2019-04-14T03:18:47.075Z,102678.05
2019-04-14T03:24:10.893Z,102668.41
2019-04-14T03:26:47.417Z,102667.25
2019-04-14T03:29:27.153Z,102668.20
2019-04-14T03:32:15.016Z,102668.41
2019-04-14T03:39:36.997Z,102669.89
2019-04-14T03:42:01.276Z,102672.62
2019-04-14T03:44:37.535Z,102678.96
2019-04-14T03:47:08.709Z,102675.45
2019-04-14T03:49:42.430Z,102676.50
2019-04-14T03:54:32.842Z,102671.71
2019-04-14T03:56:49.282Z,102669.64
2019-04-14T03:59:19.722Z,102671.47
2019-04-14T04:01:50.670Z,102673.63
2019-04-14T04:04:20.697Z,102674.69
2019-04-14T04:06:50.982Z,102673.97
2019-04-14T04:09:23.575Z,102672.58
2019-04-14T04:11:54.117Z,102678.68
2019-04-14T04:14:24.628Z,102677.34
2019-04-14T04:17:14.668Z,102675.55
2019-04-14T04:20:05.328Z,102675.74
2019-04-14T04:22:36.962Z,102675.74
2019-04-14T04:25:09.434Z,102680.69
2019-04-14T04:27:50.463Z,102672.90
2019-04-14T04:30:31.828Z,102674.24
2019-04-14T04:33:04.430Z,102677.45
2019-04-14T04:35:41.920Z,102685.37
2019-04-14T04:38:16.003Z,102683.70
2019-04-14T04:40:46.193Z,102696.00
2019-04-14T04:43:16.866Z,102695.05
2019-04-14T04:45:47.387Z,102690.91
2019-04-14T04:48:17.459Z,102691.62
2019-04-14T04:50:49.999Z,102690.53
2019-04-14T04:53:20.157Z,102699.67
2019-04-14T04:55:50.422Z,102704.23
2019-04-14T04:58:21.530Z,102698.38
2019-04-14T05:00:54.167Z,102705.00
2019-04-14T05:03:23.381Z,102706.50
2019-04-14T05:06:28.662Z,102705.92
2019-04-14T05:09:01.249Z,102708.87
2019-04-14T05:11:52.588Z,102711.06
2019-04-14T05:14:41.242Z,102721.67
2019-04-14T05:17:12.568Z,102711.55
2019-04-14T05:19:43.584Z,102711.93
2019-04-14T05:22:16.111Z,102720.27
2019-04-14T05:24:46.087Z,102717.96
2019-04-14T05:27:16.717Z,102716.62
2019-04-14T05:29:47.236Z,102722.58
2019-04-14T05:32:17.459Z,102722.05
2019-04-14T05:34:47.886Z,102718.02
2019-04-14T05:37:18.237Z,102713.70
2019-04-14T05:39:48.435Z,102725.55
2019-04-14T05:42:22.045Z,102729.64
2019-04-14T05:44:49.906Z,102735.44
2019-04-14T05:47:19.805Z,102729.88
2019-04-14T05:49:53.082Z,102736.89
2019-04-14T05:52:21.244Z,102730.27
2019-04-14T05:54:51.507Z,102733.11
2019-04-14T05:57:21.988Z,102747.36
2019-04-14T05:59:52.734Z,102749.18
2019-04-14T06:02:22.631Z,102753.31
2019-04-14T06:04:52.581Z,102752.45
2019-04-14T06:07:22.361Z,102756.17
2019-04-14T06:09:52.153Z,102765.63
2019-04-14T06:12:21.927Z,102758.64
2019-04-14T06:14:51.770Z,102766.91
2019-04-14T06:17:21.510Z,102762.09
2019-04-14T06:19:51.415Z,102770.90
2019-04-14T06:22:21.325Z,102775.55
2019-04-14T06:24:51.105Z,102785.39
2019-04-14T06:27:21.061Z,102780.89
2019-04-14T06:29:52.490Z,102788.87
2019-04-14T06:32:24.022Z,102780.27
2019-04-14T06:34:55.551Z,102793.38
2019-04-14T06:37:36.407Z,102789.86
2019-04-14T06:40:08.253Z,102792.14
2019-04-14T06:42:38.091Z,102793.05
2019-04-14T06:45:08.286Z,102787.80
2019-04-14T06:47:38.134Z,102785.91
2019-04-14T06:50:09.143Z,102783.27
2019-04-14T06:52:39.061Z,102785.38
2019-04-14T06:55:09.109Z,102775.47
2019-04-14T06:57:38.979Z,102779.45
2019-04-14T07:00:09.570Z,102782.40
2019-04-14T07:02:39.572Z,102777.88
2019-04-14T07:05:09.485Z,102778.27
2019-04-14T07:07:39.349Z,102782.64
2019-04-14T07:10:09.193Z,102782.12
2019-04-14T07:12:39.037Z,102783.59
2019-04-14T07:15:09.153Z,102776.73
2019-04-14T07:17:38.995Z,102785.06
2019-04-14T07:20:09.002Z,102780.13
2019-04-14T07:22:38.843Z,102784.48
2019-04-14T07:25:08.772Z,102789.66
2019-04-14T07:27:38.676Z,102793.47
2019-04-14T07:30:16.441Z,102790.20
2019-04-14T07:32:47.979Z,102788.94
2019-04-14T07:35:28.587Z,102782.58
2019-04-14T07:38:01.158Z,102787.05
2019-04-14T07:40:39.137Z,102793.05
2019-04-14T07:43:27.073Z,102787.99
2019-04-14T07:46:03.173Z,102793.13
2019-04-14T07:48:39.187Z,102789.02
2019-04-14T07:51:25.938Z,102800.66
2019-04-14T07:53:57.322Z,102794.97
2019-04-14T07:56:37.846Z,102795.57
2019-04-14T07:59:21.285Z,102792.77
2019-04-14T08:02:04.682Z,102797.61
2019-04-14T08:04:36.088Z,102796.91
2019-04-14T08:07:06.015Z,102792.58
2019-04-14T08:09:35.934Z,102790.37
2019-04-14T08:12:05.797Z,102785.86
2019-04-14T08:14:35.829Z,102789.28
2019-04-14T08:17:05.710Z,102792.67
2019-04-14T08:19:37.261Z,102792.92
2019-04-14T08:22:07.238Z,102796.11
2019-04-14T08:24:37.203Z,102787.52
2019-04-14T08:27:07.005Z,102794.28
2019-04-14T08:29:36.940Z,102794.12
2019-04-14T08:32:06.754Z,102804.91
2019-04-14T08:34:36.781Z,102800.28
2019-04-14T08:37:06.720Z,102803.07
2019-04-14T08:39:36.503Z,102806.19
2019-04-14T08:42:19.972Z,102801.83
2019-04-14T08:47:56.658Z,102811.02
2019-04-14T08:50:39.453Z,102810.00
2019-04-14T08:53:13.345Z,102809.81
2019-04-14T08:55:57.353Z,102812.30
2019-04-14T08:58:29.066Z,102813.08
2019-04-14T09:01:06.744Z,102808.75
2019-04-14T09:03:49.743Z,102808.19
2019-04-14T09:06:21.110Z,102826.57
2019-04-14T09:09:09.218Z,102807.69
2019-04-14T09:11:49.421Z,102811.23
2019-04-14T09:14:19.161Z,102822.80
2019-04-14T09:16:48.968Z,102819.72
2019-04-14T09:19:18.712Z,102821.75
2019-04-14T09:21:48.440Z,102825.50
2019-04-14T09:24:18.269Z,102822.95
2019-04-14T09:26:48.102Z,102829.14
2019-04-14T09:29:17.931Z,102823.22
2019-04-14T09:31:47.677Z,102835.25
2019-04-14T09:34:17.452Z,102830.27
2019-04-14T09:36:47.204Z,102832.58
2019-04-14T09:39:17.132Z,102833.38
2019-04-14T09:41:46.890Z,102828.12
2019-04-14T09:44:16.644Z,102829.39
2019-04-14T09:46:48.533Z,102837.50
2019-04-14T09:49:18.295Z,102837.80
2019-04-14T09:51:48.011Z,102834.14
2019-04-14T09:54:17.683Z,102830.67
2019-04-14T09:56:47.450Z,102835.23
2019-04-14T09:59:17.240Z,102836.22
2019-04-14T10:01:46.943Z,102841.32
2019-04-14T10:04:16.800Z,102839.89
2019-04-14T10:06:46.483Z,102837.77
2019-04-14T10:09:16.264Z,102830.23
2019-04-14T10:11:49.279Z,102839.41
2019-04-14T10:14:17.582Z,102837.62
2019-04-14T10:16:47.248Z,102843.03
2019-04-14T10:19:17.087Z,102828.91
2019-04-14T10:21:46.881Z,102838.18
2019-04-14T10:24:16.722Z,102841.37
2019-04-14T10:26:46.549Z,102842.77
2019-04-14T10:29:16.346Z,102828.47
2019-04-14T10:31:46.162Z,102841.47
2019-04-14T10:34:16.004Z,102843.63
2019-04-14T10:36:45.755Z,102839.95
2019-04-14T10:39:15.668Z,102832.71
2019-04-14T10:41:45.539Z,102839.50
2019-04-14T10:44:15.295Z,102845.02
2019-04-14T10:46:45.113Z,102845.89
2019-04-14T10:49:14.952Z,102846.25
2019-04-14T10:51:44.731Z,102848.52
2019-04-14T10:54:14.540Z,102839.45
2019-04-14T10:56:44.365Z,102843.27
2019-04-14T10:59:14.355Z,102838.09
2019-04-14T11:01:44.280Z,102834.14
2019-04-14T11:04:14.025Z,102837.41
2019-04-14T11:06:51.610Z,102842.09
2019-04-14T11:09:21.320Z,102844.53
2019-04-14T11:11:51.098Z,102842.67
2019-04-14T11:14:20.811Z,102840.33
2019-04-14T11:16:50.732Z,102837.27
2019-04-14T11:19:20.582Z,102835.94
2019-04-14T11:21:50.603Z,102837.47
2019-04-14T11:24:20.477Z,102837.14
2019-04-14T11:26:50.470Z,102834.33
2019-04-14T11:29:20.277Z,102829.61
2019-04-14T11:31:51.682Z,102836.62
2019-04-14T11:34:23.128Z,102837.06
2019-04-14T11:37:06.296Z,102839.63
2019-04-14T11:39:36.039Z,102846.64
2019-04-14T11:42:05.853Z,102829.34
2019-04-14T11:44:35.626Z,102841.59
2019-04-14T11:47:08.697Z,102840.27
2019-04-14T11:49:38.549Z,102838.32
2019-04-14T11:52:08.444Z,102846.83
2019-04-14T11:54:38.220Z,102841.84
2019-04-14T11:57:08.149Z,102841.26
2019-04-14T11:59:39.575Z,102848.36
2019-04-14T12:02:11.102Z,102845.16
2019-04-14T12:04:42.520Z,102848.36
2019-04-14T12:07:25.893Z,102852.30
2019-04-14T12:10:00.039Z,102847.97
2019-04-14T12:12:30.001Z,102834.47
2019-04-14T12:14:59.905Z,102846.89
2019-04-14T12:17:31.491Z,102857.17
2019-04-14T12:20:01.408Z,102849.34
2019-04-14T12:22:31.306Z,102847.16
2019-04-14T12:25:01.224Z,102853.81
2019-04-14T12:27:30.960Z,102851.56
2019-04-14T12:30:01.052Z,102846.27
2019-04-14T12:32:31.353Z,102862.98
2019-04-14T12:35:01.123Z,102839.91
2019-04-14T12:37:30.867Z,102854.59
2019-04-14T12:40:00.564Z,102857.63
2019-04-14T12:42:32.056Z,102856.69
2019-04-14T12:45:03.584Z,102853.52
2019-04-14T12:47:39.899Z,102861.61
2019-04-14T12:50:17.636Z,102856.13
2019-04-14T12:52:47.524Z,102856.18
2019-04-14T12:55:17.273Z,102856.89
2019-04-14T12:57:51.158Z,102857.09
2019-04-14T13:00:22.775Z,102857.42
2019-04-14T13:02:56.251Z,102863.64
2019-04-14T13:05:26.122Z,102857.50
2019-04-14T13:07:55.883Z,102856.33
2019-04-14T13:10:25.891Z,102856.48
2019-04-14T13:12:55.624Z,102856.30
2019-04-14T13:15:25.563Z,102856.33
2019-04-14T13:17:55.476Z,102848.30
2019-04-14T13:20:25.317Z,102843.27
2019-04-14T13:22:55.085Z,102846.16
2019-04-14T13:25:24.896Z,102848.75
2019-04-14T13:27:54.820Z,102839.69
2019-04-14T13:30:29.347Z,102838.01
2019-04-14T13:32:59.341Z,102837.14
2019-04-14T13:35:29.412Z,102841.34
2019-04-14T13:37:59.400Z,102841.94
2019-04-14T13:40:29.354Z,102847.83
2019-04-14T13:42:59.272Z,102835.15
2019-04-14T13:45:29.195Z,102825.59
2019-04-14T13:47:58.973Z,102827.67
2019-04-14T13:50:28.752Z,102833.05
2019-04-14T13:53:01.075Z,102840.24
2019-04-14T13:55:30.215Z,102849.17
2019-04-14T13:58:00.040Z,102839.29
2019-04-14T14:00:30.026Z,102839.36
2019-04-14T14:03:00.069Z,102839.87
2019-04-14T14:05:29.850Z,102835.88
2019-04-14T14:07:59.638Z,102832.42
2019-04-14T14:10:30.621Z,102834.19
2019-04-14T14:13:17.164Z,102824.48
2019-04-14T14:15:48.722Z,102837.88
2019-04-14T14:18:23.133Z,102839.87
2019-04-14T14:20:57.443Z,102845.61
2019-04-14T14:23:28.881Z,102839.36
2019-04-14T14:26:03.144Z,102838.76
2019-04-14T14:28:33.026Z,102831.69
2019-04-14T14:31:02.880Z,102841.38
2019-04-14T14:33:32.655Z,102837.65
2019-04-14T14:36:02.428Z,102832.98
2019-04-14T14:38:32.209Z,102831.06
2019-04-14T14:41:03.642Z,102840.97
2019-04-14T14:43:33.435Z,102838.78
2019-04-14T14:46:20.800Z,102856.84
2019-04-14T14:49:07.265Z,102843.98
2019-04-14T14:51:47.914Z,102851.27
2019-04-14T14:54:17.869Z,102828.72
2019-04-14T14:56:47.796Z,102850.12
2019-04-14T14:59:17.589Z,102834.43
2019-04-14T15:01:47.472Z,102851.41
2019-04-14T15:04:19.002Z,102841.61
2019-04-14T15:06:48.908Z,102845.64
2019-04-14T15:09:18.747Z,102852.69
2019-04-14T15:11:48.511Z,102847.59
2019-04-14T15:14:18.366Z,102838.53
2019-04-14T15:16:48.263Z,102832.66
2019-04-14T15:19:18.161Z,102844.47
2019-04-14T15:21:48.073Z,102838.09
2019-04-14T15:24:17.902Z,102835.55
2019-04-14T15:26:47.804Z,102839.94
2019-04-14T15:29:17.595Z,102836.17
2019-04-14T15:31:47.396Z,102833.62
2019-04-14T15:34:17.127Z,102832.27
2019-04-14T15:36:47.098Z,102841.34
2019-04-14T15:39:16.846Z,102851.83
2019-04-14T15:41:46.708Z,102835.78
2019-04-14T15:44:16.468Z,102844.23
2019-04-14T15:46:46.212Z,102845.11
2019-04-14T15:49:15.987Z,102837.83
2019-04-14T15:51:45.739Z,102838.83
2019-04-14T15:54:15.506Z,102839.77
2019-04-14T15:56:49.686Z,102831.55
2019-04-14T15:59:30.084Z,102838.06
2019-04-14T16:02:13.549Z,102841.20
2019-04-14T16:04:47.846Z,102844.02
2019-04-14T16:07:27.970Z,102837.08
2019-04-14T16:10:08.200Z,102838.67
2019-04-14T16:12:48.500Z,102846.16
2019-04-14T16:15:19.867Z,102838.55
2019-04-14T16:17:54.195Z,102837.69
2019-04-14T16:20:28.200Z,102841.75
2019-04-14T16:22:58.007Z,102832.58
2019-04-14T16:25:39.526Z,102853.79
2019-04-14T16:28:10.968Z,102814.52
2019-04-14T16:31:00.548Z,102834.85
2019-04-14T16:33:31.903Z,102836.14
2019-04-14T16:36:01.756Z,102846.74
2019-04-14T16:38:31.419Z,102833.72
2019-04-14T16:41:01.151Z,102850.14
2019-04-14T16:43:30.813Z,102852.56
2019-04-14T16:46:00.584Z,102851.97
2019-04-14T16:48:31.384Z,102856.44
2019-04-14T16:51:01.141Z,102860.84
2019-04-14T16:53:32.555Z,102861.37
2019-04-14T16:56:04.234Z,102858.39
2019-04-14T16:58:38.314Z,102865.41
2019-04-14T17:01:11.442Z,102849.31
2019-04-14T17:03:44.451Z,102850.92
2019-04-14T17:06:14.727Z,102864.43
2019-04-14T17:08:44.649Z,102858.69
2019-04-14T17:11:39.356Z,102885.92
2019-04-14T17:14:13.407Z,102863.66
2019-04-14T17:16:56.711Z,102869.12
2019-04-14T17:19:30.865Z,102875.30
2019-04-14T17:22:04.984Z,102873.77
2019-04-14T17:24:54.725Z,102859.23
2019-04-14T17:27:26.273Z,102861.84
2019-04-14T17:30:09.811Z,102865.06
2019-04-14T17:32:41.626Z,102870.75
2019-04-14T17:35:19.698Z,102868.98
2019-04-14T17:38:00.160Z,102870.77
2019-04-14T17:40:34.866Z,102868.22
2019-04-14T17:43:07.076Z,102872.47
2019-04-14T17:45:41.480Z,102872.84
2019-04-14T17:48:16.123Z,102872.70
2019-04-14T17:50:50.497Z,102863.05
2019-04-14T17:53:33.581Z,102884.23
2019-04-14T17:56:23.485Z,102882.25
2019-04-14T17:58:57.725Z,102878.48
2019-04-14T18:01:44.008Z,102899.41
2019-04-14T18:04:25.705Z,102889.95
2019-04-14T18:07:01.141Z,102893.45
2019-04-14T18:09:38.651Z,102896.16
2019-04-14T18:12:10.265Z,102898.13
2019-04-14T18:14:50.563Z,102898.13
2019-04-14T18:17:31.350Z,102905.17
2019-04-14T18:20:15.138Z,102903.88
2019-04-14T18:22:44.908Z,102906.39
2019-04-14T18:25:14.804Z,102920.42
2019-04-14T18:27:51.986Z,102922.56
2019-04-14T18:30:26.459Z,102921.95
2019-04-14T18:33:03.880Z,102920.58
2019-04-14T18:35:35.447Z,102915.27
2019-04-14T18:38:12.640Z,102928.34
2019-04-14T18:40:55.715Z,102930.31
2019-04-14T18:43:29.838Z,102931.39
2019-04-14T18:46:01.736Z,102930.11
2019-04-14T18:48:41.892Z,102935.63
2019-04-14T18:51:25.396Z,102942.02
2019-04-14T18:53:56.902Z,102954.66
2019-04-14T18:56:28.293Z,102960.41
2019-04-14T18:59:02.720Z,102952.56
2019-04-14T19:01:34.108Z,102959.80
2019-04-14T19:04:03.804Z,102953.23
2019-04-14T19:06:33.472Z,102955.37
2019-04-14T19:09:03.603Z,102958.93
2019-04-14T19:11:34.936Z,102968.87
2019-04-14T19:14:06.248Z,102962.27
2019-04-14T19:16:43.217Z,102965.08
2019-04-14T19:19:12.895Z,102968.73
2019-04-14T19:21:42.583Z,102972.57
2019-04-14T19:24:12.258Z,102975.55
2019-04-14T19:26:41.949Z,102967.95
2019-04-14T19:29:11.684Z,102971.70
2019-04-14T19:31:41.569Z,102970.23
2019-04-14T19:34:11.261Z,102974.27
2019-04-14T19:36:40.953Z,102965.37
2019-04-14T19:39:10.782Z,102977.39
2019-04-14T19:41:40.479Z,102972.55
2019-04-14T19:44:10.167Z,102980.54
2019-04-14T19:46:41.058Z,102993.17
2019-04-14T19:49:10.836Z,102984.72
2019-04-14T19:51:40.525Z,102990.23
2019-04-14T19:54:10.282Z,102992.19
2019-04-14T19:56:39.974Z,103000.16
2019-04-14T19:59:09.665Z,102999.86
2019-04-14T20:01:39.420Z,103018.62
2019-04-14T20:04:09.238Z,103010.95
2019-04-14T20:06:38.948Z,103015.44
2019-04-14T20:09:08.741Z,103016.84
2019-04-14T20:11:38.535Z,103018.33
2019-04-14T20:14:08.467Z,103018.33
2019-04-14T20:16:46.023Z,103006.98
2019-04-14T20:19:17.397Z,103013.97
2019-04-14T20:22:04.020Z,103014.33
2019-04-14T20:24:47.272Z,103011.77
2019-04-14T20:27:18.590Z,103015.02
2019-04-14T20:29:49.950Z,103020.14
2019-04-14T20:32:24.279Z,103019.55
2019-04-14T20:34:53.951Z,103020.47
2019-04-14T20:37:23.637Z,103028.78
2019-04-14T20:39:53.370Z,103028.89
2019-04-14T20:42:23.061Z,103029.43
2019-04-14T20:44:52.733Z,103030.72
2019-04-14T20:47:26.358Z,103036.98
2019-04-14T20:49:56.018Z,103034.90
2019-04-14T20:52:29.260Z,103033.55
2019-04-14T20:55:00.538Z,103039.84
2019-04-14T20:57:30.254Z,103049.89
2019-04-14T20:59:59.920Z,103057.80
2019-04-14T21:02:31.258Z,103043.78
2019-04-14T21:05:18.568Z,103047.94
2019-04-14T21:07:49.906Z,103041.20
2019-04-14T21:10:24.106Z,103046.05
2019-04-14T21:13:07.419Z,103050.64
2019-04-14T21:15:41.991Z,103054.52
2019-04-14T21:18:16.365Z,103057.36
2019-04-14T21:20:53.616Z,103057.91
2019-04-14T21:23:24.975Z,103056.87
2019-04-14T21:26:05.108Z,103064.17
2019-04-14T21:28:39.708Z,103060.94
2019-04-14T21:31:11.119Z,103058.34
2019-04-14T21:33:57.347Z,103063.20
2019-04-14T21:36:31.653Z,103069.71
2019-04-14T21:39:18.103Z,103067.78
2019-04-14T21:41:49.474Z,103062.77
2019-04-14T21:44:19.423Z,103057.42
2019-04-14T21:46:57.559Z,103060.08
2019-04-14T21:49:27.441Z,103052.95
2019-04-14T21:52:04.905Z,103060.72
2019-04-14T21:54:34.674Z,103063.41
2019-04-14T21:57:08.247Z,103068.80
2019-04-14T21:59:55.720Z,103069.23
2019-04-14T22:02:43.367Z,103062.93
2019-04-14T22:05:30.961Z,103071.02
2019-04-14T22:08:11.178Z,103079.97
2019-04-14T22:10:51.708Z,103089.41
2019-04-14T22:13:21.408Z,103080.93
2019-04-14T22:15:51.163Z,103081.31
2019-04-14T22:18:20.900Z,103085.25
2019-04-14T22:20:50.591Z,103092.05
2019-04-14T22:23:20.363Z,103089.55
2019-04-14T22:25:50.057Z,103092.20
2019-04-14T22:28:19.830Z,103094.46
2019-04-14T22:30:49.493Z,103090.91
2019-04-14T22:33:19.262Z,103093.39
2019-04-14T22:35:48.935Z,103092.62
2019-04-14T22:38:18.777Z,103096.73
2019-04-14T22:40:48.474Z,103095.38
2019-04-14T22:43:18.207Z,103089.41
2019-04-14T22:45:47.902Z,103093.02
2019-04-14T22:48:17.783Z,103096.23
2019-04-14T22:50:47.465Z,103097.05
2019-04-14T22:53:17.269Z,103102.55
2019-04-14T22:55:47.065Z,103100.34
2019-04-14T22:58:16.833Z,103103.52
2019-04-14T23:00:57.307Z,103103.56
2019-04-14T23:03:45.011Z,103111.55
2019-04-14T23:06:28.530Z,103101.30
2019-04-14T23:09:16.234Z,103103.19
2019-04-14T23:11:47.632Z,103106.01
2019-04-14T23:14:27.949Z,103112.36
2019-04-14T23:17:14.172Z,103110.48
2019-04-14T23:19:45.522Z,103114.59
2019-04-14T23:22:32.157Z,103122.66
2019-04-14T23:25:02.091Z,103113.19
2019-04-14T23:27:31.923Z,103122.23
2019-04-14T23:30:01.758Z,103120.35
2019-04-14T23:32:31.520Z,103123.95
2019-04-14T23:35:01.440Z,103128.00
2019-04-14T23:37:31.253Z,103124.97
2019-04-14T23:40:00.991Z,103117.27
2019-04-14T23:42:30.940Z,103119.53
2019-04-14T23:47:57.098Z,103117.70
2019-04-14T23:50:26.814Z,103115.83
2019-04-14T23:52:56.486Z,103123.09
2019-04-14T23:55:26.172Z,103118.27
2019-04-14T23:57:55.865Z,103127.23
